createdAt,value
2023-03-18T00:00:23.637Z,0.00
2023-03-18T00:01:23.628Z,0.00
2023-03-18T00:02:23.665Z,0.00
2023-03-18T00:03:23.620Z,0.00
2023-03-18T00:04:23.634Z,0.00
2023-03-18T00:05:23.594Z,0.00
2023-03-18T00:06:23.587Z,0.00
2023-03-18T00:07:23.581Z,0.00
2023-03-18T00:08:23.569Z,0.00
2023-03-18T00:09:23.582Z,0.00
2023-03-18T00:10:23.558Z,0.00
2023-03-18T00:11:23.549Z,0.00
2023-03-18T00:12:23.532Z,0.00
2023-03-18T00:13:23.525Z,0.00
2023-03-18T00:14:23.552Z,0.00
2023-03-18T00:15:23.551Z,0.00
2023-03-18T00:16:23.587Z,0.00
2023-03-18T00:17:23.616Z,0.00
2023-03-18T00:18:23.497Z,0.00
2023-03-18T00:19:23.506Z,0.00
2023-03-18T00:20:23.480Z,0.00
2023-03-18T00:21:23.456Z,0.00
2023-03-18T00:22:24.469Z,0.00
2023-03-18T00:23:23.464Z,0.00
2023-03-18T00:24:23.549Z,0.00
2023-03-18T00:25:23.461Z,0.00
2023-03-18T00:26:23.437Z,0.00
2023-03-18T00:27:23.430Z,0.00
2023-03-18T00:28:23.411Z,0.00
2023-03-18T00:29:23.440Z,0.00
2023-03-18T00:30:23.410Z,0.00
2023-03-18T00:31:23.541Z,0.00
2023-03-18T00:32:23.390Z,0.00
2023-03-18T00:33:23.378Z,0.00
2023-03-18T00:34:23.394Z,0.00
2023-03-18T00:35:23.379Z,0.00
2023-03-18T00:36:23.366Z,0.00
2023-03-18T00:37:23.348Z,0.00
2023-03-18T00:38:23.339Z,0.00
2023-03-18T00:39:23.360Z,0.00
2023-03-18T00:40:23.333Z,0.00
2023-03-18T00:41:23.332Z,0.00
2023-03-18T00:42:23.323Z,0.00
2023-03-18T00:43:23.315Z,0.00
2023-03-18T00:44:23.331Z,0.00
2023-03-18T00:45:23.292Z,0.00
2023-03-18T00:46:23.381Z,0.00
2023-03-18T00:47:23.291Z,0.00
2023-03-18T00:48:23.276Z,0.00
2023-03-18T00:49:23.313Z,0.00
2023-03-18T00:50:23.262Z,0.00
2023-03-18T00:51:23.278Z,0.00
2023-03-18T00:52:23.253Z,0.00
2023-03-18T00:53:23.230Z,0.00
2023-03-18T00:54:23.257Z,0.00
2023-03-18T00:55:23.213Z,0.00
2023-03-18T00:56:23.215Z,0.00
2023-03-18T00:57:23.198Z,0.00
2023-03-18T00:58:23.206Z,0.00
2023-03-18T00:59:23.187Z,0.00
2023-03-18T01:00:23.216Z,0.00
2023-03-18T01:01:23.234Z,0.00
2023-03-18T01:02:23.195Z,0.00
2023-03-18T01:03:23.158Z,0.00
2023-03-18T01:04:23.151Z,0.00
2023-03-18T01:05:23.171Z,0.00
2023-03-18T01:06:23.140Z,0.00
2023-03-18T01:07:23.128Z,0.00
2023-03-18T01:08:23.119Z,0.00
2023-03-18T01:09:23.124Z,0.00
2023-03-18T01:10:23.128Z,0.00
2023-03-18T01:11:23.093Z,0.00
2023-03-18T01:12:23.089Z,0.00
2023-03-18T01:13:23.082Z,0.00
2023-03-18T01:14:23.090Z,0.00
2023-03-18T01:15:23.090Z,0.00
2023-03-18T01:16:23.097Z,0.00
2023-03-18T01:17:23.055Z,0.00
2023-03-18T01:18:23.046Z,0.00
2023-03-18T01:19:23.292Z,0.00
2023-03-18T01:20:23.052Z,0.00
2023-03-18T01:21:23.024Z,0.00
2023-03-18T01:22:23.015Z,0.00
2023-03-18T01:23:23.002Z,0.00
2023-03-18T01:24:23.003Z,0.00
2023-03-18T01:25:23.013Z,0.00
2023-03-18T01:26:22.990Z,0.00
2023-03-18T01:27:22.979Z,0.00
2023-03-18T01:28:22.997Z,0.00
2023-03-18T01:29:22.962Z,0.00
2023-03-18T01:30:22.977Z,0.00
2023-03-18T01:31:22.979Z,0.00
2023-03-18T01:32:22.940Z,0.00
2023-03-18T01:33:22.927Z,0.00
2023-03-18T01:34:22.928Z,0.00
2023-03-18T01:35:22.973Z,0.00
2023-03-18T01:36:22.908Z,0.00
2023-03-18T01:38:08.020Z,0.00
2023-03-18T01:39:08.052Z,0.00
2023-03-18T01:40:08.056Z,0.00
2023-03-18T01:41:08.027Z,0.00
2023-03-18T01:42:08.014Z,0.00
2023-03-18T01:43:08.017Z,0.00
2023-03-18T01:44:08.001Z,0.00
2023-03-18T01:45:08.027Z,0.00
2023-03-18T01:46:08.063Z,0.00
2023-03-18T01:47:08.038Z,0.00
2023-03-18T01:48:07.981Z,0.00
2023-03-18T01:49:07.981Z,0.00
2023-03-18T01:50:07.981Z,0.00
2023-03-18T01:51:07.962Z,0.00
2023-03-18T01:52:07.948Z,0.00
2023-03-18T01:53:07.959Z,0.00
2023-03-18T01:54:07.932Z,0.00
2023-03-18T01:55:09.077Z,0.00
2023-03-18T01:56:09.061Z,0.00
2023-03-18T01:57:09.043Z,0.00
2023-03-18T01:58:09.030Z,0.00
2023-03-18T01:59:09.026Z,0.00
2023-03-18T02:00:09.047Z,0.00
2023-03-18T02:01:09.034Z,0.00
2023-03-18T02:02:09.006Z,0.00
2023-03-18T02:03:09.010Z,0.00
2023-03-18T02:04:08.992Z,0.00
2023-03-18T02:05:09.001Z,0.00
2023-03-18T02:06:08.972Z,0.00
2023-03-18T02:07:08.961Z,0.00
2023-03-18T02:08:08.961Z,0.00
2023-03-18T02:09:08.953Z,0.00
2023-03-18T02:10:09.785Z,0.00
2023-03-18T02:11:08.933Z,0.00
2023-03-18T02:12:08.936Z,0.00
2023-03-18T02:13:08.922Z,0.00
2023-03-18T02:14:08.913Z,0.00
2023-03-18T02:15:08.937Z,0.00
2023-03-18T02:16:08.897Z,0.00
2023-03-18T02:17:08.880Z,0.00
2023-03-18T02:18:08.877Z,0.00
2023-03-18T02:19:08.871Z,0.00
2023-03-18T02:20:08.902Z,0.00
2023-03-18T02:21:08.865Z,0.00
2023-03-18T02:22:08.852Z,0.00
2023-03-18T02:23:08.843Z,0.00
2023-03-18T02:24:08.825Z,0.00
2023-03-18T02:25:08.857Z,0.00
2023-03-18T02:26:08.821Z,0.00
2023-03-18T02:27:08.808Z,0.00
2023-03-18T02:28:08.801Z,0.00
2023-03-18T02:29:08.796Z,0.00
2023-03-18T02:30:08.810Z,0.00
2023-03-18T02:31:08.855Z,0.00
2023-03-18T02:32:08.782Z,0.00
2023-03-18T02:33:08.923Z,0.00
2023-03-18T02:34:08.762Z,0.00
2023-03-18T02:35:08.787Z,0.00
2023-03-18T02:36:08.754Z,0.00
2023-03-18T02:37:08.740Z,0.00
2023-03-18T02:38:08.729Z,0.00
2023-03-18T02:39:08.724Z,0.00
2023-03-18T02:40:08.747Z,0.00
2023-03-18T02:41:08.700Z,0.00
2023-03-18T02:42:08.693Z,0.00
2023-03-18T02:43:08.687Z,0.00
2023-03-18T02:44:08.679Z,0.00
2023-03-18T02:45:08.710Z,0.00
2023-03-18T02:46:08.676Z,0.00
2023-03-18T02:47:08.660Z,0.00
2023-03-18T02:48:08.656Z,0.00
2023-03-18T02:49:08.638Z,0.00
2023-03-18T02:50:08.635Z,0.00
2023-03-18T02:51:08.652Z,0.00
2023-03-18T02:52:08.626Z,0.00
2023-03-18T02:53:08.611Z,0.00
2023-03-18T02:54:08.614Z,0.00
2023-03-18T02:55:08.602Z,0.00
2023-03-18T02:56:08.627Z,0.00
2023-03-18T02:57:08.588Z,0.00
2023-03-18T02:58:08.582Z,0.00
2023-03-18T02:59:08.574Z,0.00
2023-03-18T03:00:08.564Z,0.00
2023-03-18T03:01:08.621Z,0.00
2023-03-18T03:02:08.587Z,0.00
2023-03-18T03:03:08.725Z,0.00
2023-03-18T03:04:08.542Z,0.00
2023-03-18T03:05:08.538Z,0.00
2023-03-18T03:06:08.560Z,0.00
2023-03-18T03:07:08.518Z,0.00
2023-03-18T03:08:08.520Z,0.00
2023-03-18T03:09:08.503Z,0.00
2023-03-18T03:10:08.485Z,0.00
2023-03-18T03:11:09.512Z,0.00
2023-03-18T03:12:08.483Z,0.00
2023-03-18T03:13:08.487Z,0.00
2023-03-18T03:14:08.482Z,0.00
2023-03-18T03:15:08.468Z,0.00
2023-03-18T03:16:08.511Z,0.00
2023-03-18T03:17:08.452Z,0.00
2023-03-18T03:18:08.434Z,0.00
2023-03-18T03:19:08.433Z,0.00
2023-03-18T03:20:08.422Z,0.00
2023-03-18T03:21:08.440Z,0.00
2023-03-18T03:22:08.421Z,0.00
2023-03-18T03:23:08.401Z,0.00
2023-03-18T03:24:08.403Z,0.00
2023-03-18T03:25:08.387Z,0.00
2023-03-18T03:26:08.400Z,0.00
2023-03-18T03:27:08.375Z,0.00
2023-03-18T03:28:08.364Z,0.00
2023-03-18T03:29:08.353Z,0.00
2023-03-18T03:30:08.358Z,0.00
2023-03-18T03:31:08.382Z,0.00
2023-03-18T03:32:08.338Z,0.00
2023-03-18T03:33:08.364Z,0.00
2023-03-18T03:34:08.319Z,0.00
2023-03-18T03:35:08.316Z,0.00
2023-03-18T03:36:08.367Z,0.00
2023-03-18T03:37:08.303Z,0.00
2023-03-18T03:38:08.286Z,0.00
2023-03-18T03:39:09.293Z,0.00
2023-03-18T03:40:08.267Z,0.00
2023-03-18T03:41:08.305Z,0.00
2023-03-18T03:42:08.266Z,0.00
2023-03-18T03:43:08.252Z,0.00
2023-03-18T03:44:08.255Z,0.00
2023-03-18T03:45:08.241Z,0.00
2023-03-18T03:46:08.306Z,0.00
2023-03-18T03:47:08.232Z,0.00
2023-03-18T03:48:08.213Z,0.00
2023-03-18T03:49:08.209Z,0.00
2023-03-18T03:50:08.210Z,0.00
2023-03-18T03:51:08.326Z,0.00
2023-03-18T03:52:08.190Z,0.00
2023-03-18T03:53:08.179Z,0.00
2023-03-18T03:54:08.169Z,0.00
2023-03-18T03:55:08.163Z,0.00
2023-03-18T03:56:08.183Z,0.00
2023-03-18T03:57:08.148Z,0.00
2023-03-18T03:58:08.149Z,0.00
2023-03-18T03:59:08.132Z,0.00
2023-03-18T04:00:08.123Z,0.00
2023-03-18T04:01:08.138Z,0.00
2023-03-18T04:02:08.108Z,0.00
2023-03-18T04:03:08.099Z,0.00
2023-03-18T04:04:08.150Z,0.00
2023-03-18T04:05:08.081Z,0.00
2023-03-18T04:06:08.121Z,0.00
2023-03-18T04:07:08.070Z,0.00
2023-03-18T04:08:08.060Z,0.00
2023-03-18T04:09:08.049Z,0.00
2023-03-18T04:10:08.042Z,0.00
2023-03-18T04:11:08.081Z,0.00
2023-03-18T04:12:08.029Z,0.00
2023-03-18T04:13:08.022Z,0.00
2023-03-18T04:14:08.014Z,0.00
2023-03-18T04:15:08.010Z,0.00
2023-03-18T04:16:08.074Z,0.00
2023-03-18T04:17:08.016Z,0.00
2023-03-18T04:18:07.980Z,0.00
2023-03-18T04:19:07.971Z,0.00
2023-03-18T04:20:07.963Z,0.00
2023-03-18T04:21:07.957Z,0.00
2023-03-18T04:22:07.979Z,0.00
2023-03-18T04:23:07.963Z,0.00
2023-03-18T04:24:07.941Z,0.00
2023-03-18T04:25:07.942Z,0.00
2023-03-18T04:26:07.920Z,0.00
2023-03-18T04:27:07.940Z,0.00
2023-03-18T04:28:07.904Z,0.00
2023-03-18T04:29:07.899Z,0.00
2023-03-18T04:30:07.894Z,0.00
2023-03-18T04:31:07.966Z,0.00
2023-03-18T04:32:07.895Z,0.00
2023-03-18T04:33:07.964Z,0.00
2023-03-18T04:34:07.862Z,0.00
2023-03-18T04:35:07.865Z,0.00
2023-03-18T04:36:07.857Z,0.00
2023-03-18T04:37:07.868Z,0.00
2023-03-18T04:38:07.826Z,0.00
2023-03-18T04:39:07.810Z,0.00
2023-03-18T04:40:07.812Z,0.00
2023-03-18T04:41:08.804Z,0.00
2023-03-18T04:42:07.822Z,0.00
2023-03-18T04:43:07.790Z,0.00
2023-03-18T04:44:07.795Z,0.00
2023-03-18T04:45:07.776Z,0.00
2023-03-18T04:46:07.765Z,0.00
2023-03-18T04:47:07.795Z,0.00
2023-03-18T04:48:07.764Z,0.00
2023-03-18T04:49:07.760Z,0.00
2023-03-18T04:50:07.739Z,0.00
2023-03-18T04:51:07.746Z,0.00
2023-03-18T04:52:07.746Z,0.00
2023-03-18T04:53:07.723Z,0.00
2023-03-18T04:54:07.707Z,0.00
2023-03-18T04:55:07.696Z,0.00
2023-03-18T04:56:07.690Z,0.00
2023-03-18T04:57:07.701Z,0.00
2023-03-18T04:58:07.677Z,0.00
2023-03-18T04:59:07.668Z,0.00
2023-03-18T05:00:09.661Z,0.00
2023-03-18T05:01:07.688Z,0.00
2023-03-18T05:02:07.669Z,0.00
2023-03-18T05:03:07.638Z,0.00
2023-03-18T05:04:07.685Z,0.00
2023-03-18T05:05:07.658Z,0.00
2023-03-18T05:06:07.613Z,0.00
2023-03-18T05:07:07.639Z,0.00
2023-03-18T05:08:07.619Z,0.00
2023-03-18T05:09:08.590Z,0.00
2023-03-18T05:10:07.590Z,0.00
2023-03-18T05:11:07.577Z,0.00
2023-03-18T05:12:07.593Z,0.00
2023-03-18T05:13:07.560Z,0.00
2023-03-18T05:14:08.555Z,0.00
2023-03-18T05:15:07.546Z,0.00
2023-03-18T05:16:07.557Z,0.00
2023-03-18T05:17:07.560Z,0.00
2023-03-18T05:18:07.555Z,0.00
2023-03-18T05:19:07.523Z,0.00
2023-03-18T05:20:07.515Z,0.00
2023-03-18T05:21:07.518Z,0.00
2023-03-18T05:22:07.516Z,5.62
2023-03-18T05:23:07.479Z,5.62
2023-03-18T05:24:07.479Z,5.62
2023-03-18T05:25:07.473Z,5.62
2023-03-18T05:26:07.461Z,5.62
2023-03-18T05:27:07.538Z,11.25
2023-03-18T05:28:10.138Z,11.25
2023-03-18T05:29:07.449Z,11.25
2023-03-18T05:30:07.443Z,11.25
2023-03-18T05:31:07.440Z,16.88
2023-03-18T05:32:07.490Z,16.88
2023-03-18T05:33:07.457Z,22.50
2023-03-18T05:34:07.418Z,22.50
2023-03-18T05:35:07.386Z,22.50
2023-03-18T05:36:07.417Z,28.12
2023-03-18T05:37:07.400Z,28.12
2023-03-18T05:38:07.362Z,28.12
2023-03-18T05:39:07.359Z,28.12
2023-03-18T05:40:07.351Z,28.12
2023-03-18T05:41:07.355Z,28.12
2023-03-18T05:42:07.360Z,28.12
2023-03-18T05:43:07.330Z,28.12
2023-03-18T05:44:07.339Z,28.12
2023-03-18T05:45:07.312Z,28.12
2023-03-18T05:46:07.383Z,33.75
2023-03-18T05:47:07.339Z,33.75
2023-03-18T05:48:07.311Z,33.75
2023-03-18T05:49:07.279Z,33.75
2023-03-18T05:50:07.269Z,39.38
2023-03-18T05:51:07.262Z,39.38
2023-03-18T05:52:07.299Z,45.00
2023-03-18T05:53:07.247Z,45.00
2023-03-18T05:54:07.239Z,45.00
2023-03-18T05:55:07.232Z,50.62
2023-03-18T05:56:07.223Z,56.25
2023-03-18T05:57:07.218Z,56.25
2023-03-18T05:58:07.239Z,56.25
2023-03-18T05:59:07.200Z,56.25
2023-03-18T06:00:07.188Z,56.25
2023-03-18T06:01:07.195Z,50.62
2023-03-18T06:02:07.201Z,50.62
2023-03-18T06:03:07.298Z,50.62
2023-03-18T06:04:07.160Z,50.62
2023-03-18T06:05:07.155Z,56.25
2023-03-18T06:06:07.147Z,56.25
2023-03-18T06:07:07.143Z,56.25
2023-03-18T06:08:07.306Z,56.25
2023-03-18T06:09:07.118Z,56.25
2023-03-18T06:10:07.116Z,56.25
2023-03-18T06:11:07.114Z,61.88
2023-03-18T06:12:07.099Z,67.50
2023-03-18T06:13:07.118Z,73.12
2023-03-18T06:14:07.098Z,78.75
2023-03-18T06:15:07.076Z,78.75
2023-03-18T06:16:07.070Z,84.38
2023-03-18T06:17:07.065Z,84.38
2023-03-18T06:18:07.079Z,90.00
2023-03-18T06:19:07.049Z,95.62
2023-03-18T06:20:07.041Z,95.62
2023-03-18T06:21:07.052Z,106.88
2023-03-18T06:22:07.026Z,140.62
2023-03-18T06:23:07.040Z,151.88
2023-03-18T06:24:07.006Z,146.25
2023-03-18T06:25:07.005Z,151.88
2023-03-18T06:26:06.994Z,163.12
2023-03-18T06:27:06.984Z,174.38
2023-03-18T06:28:07.005Z,180.00
2023-03-18T06:29:06.977Z,191.25
2023-03-18T06:30:06.963Z,196.88
2023-03-18T06:31:06.993Z,196.88
2023-03-18T06:32:06.947Z,202.50
2023-03-18T06:33:07.089Z,208.12
2023-03-18T06:34:06.934Z,213.75
2023-03-18T06:35:06.926Z,213.75
2023-03-18T06:36:06.952Z,213.75
2023-03-18T06:37:06.918Z,213.75
2023-03-18T06:38:06.934Z,219.38
2023-03-18T06:39:06.886Z,219.38
2023-03-18T06:40:06.883Z,315.00
2023-03-18T06:41:06.874Z,258.75
2023-03-18T06:42:06.870Z,275.62
2023-03-18T06:43:06.901Z,315.00
2023-03-18T06:44:06.841Z,292.50
2023-03-18T06:45:07.836Z,635.62
2023-03-18T06:46:07.933Z,1125.00
2023-03-18T06:47:06.828Z,1833.75
2023-03-18T06:48:06.844Z,1676.25
2023-03-18T06:49:06.813Z,416.25
2023-03-18T06:50:06.803Z,309.38
2023-03-18T06:51:06.801Z,281.25
2023-03-18T06:52:06.783Z,258.75
2023-03-18T06:53:06.805Z,241.88
2023-03-18T06:54:06.770Z,236.25
2023-03-18T06:55:06.785Z,236.25
2023-03-18T06:56:06.756Z,247.50
2023-03-18T06:57:06.770Z,258.75
2023-03-18T06:58:06.765Z,275.62
2023-03-18T06:59:06.735Z,298.12
2023-03-18T07:00:06.744Z,315.00
2023-03-18T07:01:06.809Z,326.25
2023-03-18T07:02:06.708Z,337.50
2023-03-18T07:03:06.735Z,348.75
2023-03-18T07:04:06.747Z,376.88
2023-03-18T07:05:06.686Z,388.12
2023-03-18T07:06:06.674Z,416.25
2023-03-18T07:07:06.666Z,421.88
2023-03-18T07:08:06.714Z,421.88
2023-03-18T07:09:06.652Z,433.12
2023-03-18T07:10:06.639Z,472.50
2023-03-18T07:11:06.631Z,511.88
2023-03-18T07:12:06.625Z,528.75
2023-03-18T07:13:06.645Z,720.00
2023-03-18T07:14:06.608Z,2283.75
2023-03-18T07:15:06.600Z,2750.62
2023-03-18T07:16:06.642Z,2778.75
2023-03-18T07:17:06.600Z,2683.12
2023-03-18T07:18:06.621Z,1434.38
2023-03-18T07:19:06.565Z,551.25
2023-03-18T07:20:06.560Z,495.00
2023-03-18T07:21:06.548Z,1119.38
2023-03-18T07:22:06.544Z,489.38
2023-03-18T07:23:06.559Z,500.62
2023-03-18T07:24:06.523Z,596.25
2023-03-18T07:25:06.520Z,635.62
2023-03-18T07:26:06.507Z,804.38
2023-03-18T07:27:06.498Z,1479.38
2023-03-18T07:28:06.518Z,765.00
2023-03-18T07:29:06.488Z,714.38
2023-03-18T07:30:06.492Z,1186.88
2023-03-18T07:31:06.488Z,613.12
2023-03-18T07:32:06.466Z,691.88
2023-03-18T07:33:06.568Z,832.50
2023-03-18T07:34:06.446Z,720.00
2023-03-18T07:35:06.458Z,635.62
2023-03-18T07:36:06.487Z,1198.12
2023-03-18T07:37:06.422Z,2306.25
2023-03-18T07:38:06.441Z,1029.38
2023-03-18T07:39:06.420Z,596.25
2023-03-18T07:40:06.403Z,579.38
2023-03-18T07:41:06.394Z,658.12
2023-03-18T07:42:06.388Z,1389.38
2023-03-18T07:43:06.379Z,759.38
2023-03-18T07:44:06.396Z,568.12
2023-03-18T07:45:06.356Z,1417.50
2023-03-18T07:46:06.397Z,956.25
2023-03-18T07:47:06.347Z,1327.50
2023-03-18T07:48:06.395Z,1636.88
2023-03-18T07:49:06.357Z,1636.88
2023-03-18T07:50:06.331Z,1653.75
2023-03-18T07:51:06.312Z,1760.62
2023-03-18T07:52:06.302Z,1665.00
2023-03-18T07:53:07.297Z,1845.00
2023-03-18T07:54:06.316Z,1946.25
2023-03-18T07:55:06.295Z,2137.50
2023-03-18T07:56:06.278Z,2328.75
2023-03-18T07:57:06.290Z,2283.75
2023-03-18T07:58:06.264Z,2176.88
2023-03-18T07:59:06.281Z,2137.50
2023-03-18T08:00:06.254Z,2115.00
2023-03-18T08:01:06.241Z,2036.25
2023-03-18T08:02:06.233Z,1923.75
2023-03-18T08:03:06.230Z,1946.25
2023-03-18T08:04:06.320Z,1996.88
2023-03-18T08:05:06.252Z,1968.75
2023-03-18T08:06:06.209Z,1890.00
2023-03-18T08:07:06.195Z,1873.12
2023-03-18T08:08:06.186Z,1861.88
2023-03-18T08:09:06.206Z,1839.38
2023-03-18T08:10:06.172Z,1845.00
2023-03-18T08:11:06.165Z,1878.75
2023-03-18T08:12:06.160Z,1878.75
2023-03-18T08:13:06.155Z,1867.50
2023-03-18T08:14:06.167Z,1878.75
2023-03-18T08:15:06.136Z,1873.12
2023-03-18T08:16:06.153Z,1845.00
2023-03-18T08:17:06.116Z,1839.38
2023-03-18T08:18:09.120Z,1839.38
2023-03-18T08:19:07.132Z,1828.12
2023-03-18T08:20:06.099Z,1794.38
2023-03-18T08:21:06.109Z,1890.00
2023-03-18T08:22:06.085Z,1895.62
2023-03-18T08:23:06.078Z,1918.12
2023-03-18T08:24:06.093Z,1929.38
2023-03-18T08:25:06.058Z,1906.88
2023-03-18T08:26:06.053Z,1912.50
2023-03-18T08:27:06.043Z,1946.25
2023-03-18T08:28:06.036Z,2019.38
2023-03-18T08:29:06.059Z,2002.50
2023-03-18T08:30:06.035Z,2019.38
2023-03-18T08:31:06.035Z,2019.38
2023-03-18T08:32:06.008Z,2047.50
2023-03-18T08:33:06.059Z,2115.00
2023-03-18T08:34:06.016Z,2126.25
2023-03-18T08:35:05.985Z,2165.62
2023-03-18T08:36:05.996Z,2266.88
2023-03-18T08:37:05.975Z,2430.00
2023-03-18T08:38:05.963Z,2671.88
2023-03-18T08:39:05.998Z,2874.38
2023-03-18T08:40:05.952Z,3065.62
2023-03-18T08:41:05.948Z,3290.62
2023-03-18T08:42:05.933Z,3616.88
2023-03-18T08:43:05.922Z,4365.00
2023-03-18T08:44:05.943Z,5113.12
2023-03-18T08:45:05.918Z,4798.12
2023-03-18T08:46:06.047Z,3937.50
2023-03-18T08:47:05.900Z,3245.62
2023-03-18T08:48:05.895Z,2705.62
2023-03-18T08:49:05.920Z,2283.75
2023-03-18T08:50:05.900Z,1935.00
2023-03-18T08:51:05.866Z,1726.88
2023-03-18T08:52:05.871Z,1608.75
2023-03-18T08:53:05.877Z,1535.62
2023-03-18T08:54:05.873Z,1462.50
2023-03-18T08:55:05.837Z,1400.62
2023-03-18T08:56:05.833Z,1333.12
2023-03-18T08:57:05.827Z,1282.50
2023-03-18T08:58:05.836Z,1248.75
2023-03-18T08:59:05.835Z,1220.62
2023-03-18T09:00:05.819Z,1198.12
2023-03-18T09:01:05.811Z,1181.25
2023-03-18T09:02:05.800Z,1175.62
2023-03-18T09:03:05.825Z,1164.38
2023-03-18T09:04:05.798Z,1158.75
2023-03-18T09:05:05.780Z,1147.50
2023-03-18T09:06:05.762Z,1130.62
2023-03-18T09:07:05.758Z,1119.38
2023-03-18T09:08:05.750Z,1108.12
2023-03-18T09:09:05.773Z,1102.50
2023-03-18T09:10:05.734Z,1085.62
2023-03-18T09:11:05.724Z,1074.38
2023-03-18T09:12:05.739Z,1068.75
2023-03-18T09:13:05.712Z,1051.88
2023-03-18T09:14:05.726Z,1040.62
2023-03-18T09:15:05.693Z,1029.38
2023-03-18T09:16:05.688Z,1018.12
2023-03-18T09:17:05.702Z,1012.50
2023-03-18T09:18:11.361Z,990.00
2023-03-18T09:19:07.717Z,973.12
2023-03-18T09:20:05.678Z,956.25
2023-03-18T09:21:05.701Z,945.00
2023-03-18T09:22:05.640Z,933.75
2023-03-18T09:23:05.624Z,922.50
2023-03-18T09:24:07.556Z,916.88
2023-03-18T09:25:06.621Z,905.62
2023-03-18T09:26:05.610Z,894.38
2023-03-18T09:27:05.619Z,888.75
2023-03-18T09:28:05.599Z,866.25
2023-03-18T09:29:05.609Z,849.38
2023-03-18T09:30:06.912Z,838.12
2023-03-18T09:31:06.629Z,826.88
2023-03-18T09:32:05.585Z,815.62
2023-03-18T09:33:05.630Z,804.38
2023-03-18T09:34:05.593Z,793.12
2023-03-18T09:35:05.568Z,781.88
2023-03-18T09:36:05.611Z,770.62
2023-03-18T09:37:05.534Z,765.00
2023-03-18T09:38:05.578Z,753.75
2023-03-18T09:39:05.574Z,748.12
2023-03-18T09:40:05.509Z,736.88
2023-03-18T09:41:05.513Z,736.88
2023-03-18T09:42:05.495Z,731.25
2023-03-18T09:43:05.494Z,725.62
2023-03-18T09:44:05.499Z,720.00
2023-03-18T09:45:05.470Z,708.75
2023-03-18T09:46:05.616Z,703.12
2023-03-18T09:47:05.578Z,697.50
2023-03-18T09:48:05.448Z,691.88
2023-03-18T09:49:05.472Z,686.25
2023-03-18T09:50:05.437Z,680.62
2023-03-18T09:51:05.426Z,675.00
2023-03-18T09:52:05.416Z,669.38
2023-03-18T09:53:05.411Z,663.75
2023-03-18T09:54:05.428Z,658.12
2023-03-18T09:55:05.410Z,652.50
2023-03-18T09:56:05.389Z,646.88
2023-03-18T09:57:05.379Z,641.25
2023-03-18T09:58:05.382Z,641.25
2023-03-18T09:59:05.389Z,635.62
2023-03-18T10:00:05.354Z,630.00
2023-03-18T10:01:05.376Z,630.00
2023-03-18T10:02:05.348Z,618.75
2023-03-18T10:03:06.556Z,613.12
2023-03-18T10:04:06.416Z,607.50
2023-03-18T10:05:05.326Z,601.88
2023-03-18T10:06:05.329Z,596.25
2023-03-18T10:07:05.312Z,585.00
2023-03-18T10:08:05.293Z,573.75
2023-03-18T10:09:05.330Z,551.25
2023-03-18T10:10:05.286Z,523.12
2023-03-18T10:11:05.283Z,489.38
2023-03-18T10:12:05.262Z,466.88
2023-03-18T10:13:05.265Z,444.38
2023-03-18T10:14:05.258Z,427.50
2023-03-18T10:15:05.280Z,410.62
2023-03-18T10:16:05.290Z,399.38
2023-03-18T10:17:05.224Z,388.12
2023-03-18T10:18:05.215Z,388.12
2023-03-18T10:19:05.224Z,382.50
2023-03-18T10:20:05.247Z,376.88
2023-03-18T10:21:05.202Z,376.88
2023-03-18T10:22:05.186Z,376.88
2023-03-18T10:23:05.181Z,376.88
2023-03-18T10:24:05.170Z,376.88
2023-03-18T10:25:05.196Z,371.25
2023-03-18T10:26:05.172Z,371.25
2023-03-18T10:27:05.154Z,371.25
2023-03-18T10:28:05.165Z,371.25
2023-03-18T10:29:05.143Z,371.25
2023-03-18T10:30:05.161Z,371.25
2023-03-18T10:31:05.151Z,371.25
2023-03-18T10:32:05.125Z,376.88
2023-03-18T10:33:05.145Z,376.88
2023-03-18T10:34:05.100Z,376.88
2023-03-18T10:35:05.129Z,376.88
2023-03-18T10:36:05.136Z,371.25
2023-03-18T10:37:05.082Z,371.25
2023-03-18T10:38:05.078Z,376.88
2023-03-18T10:39:05.061Z,382.50
2023-03-18T10:40:05.082Z,382.50
2023-03-18T10:41:05.055Z,382.50
2023-03-18T10:42:05.052Z,382.50
2023-03-18T10:43:05.046Z,388.12
2023-03-18T10:44:05.026Z,382.50
2023-03-18T10:45:05.050Z,348.75
2023-03-18T10:46:05.061Z,371.25
2023-03-18T10:47:05.052Z,382.50
2023-03-18T10:48:06.162Z,388.12
2023-03-18T10:49:05.991Z,388.12
2023-03-18T10:50:05.007Z,382.50
2023-03-18T10:51:04.978Z,376.88
2023-03-18T10:52:04.971Z,388.12
2023-03-18T10:53:04.957Z,393.75
2023-03-18T10:54:04.954Z,399.38
2023-03-18T10:55:04.978Z,416.25
2023-03-18T10:56:04.939Z,421.88
2023-03-18T10:57:04.933Z,421.88
2023-03-18T10:58:04.928Z,427.50
2023-03-18T10:59:04.919Z,427.50
2023-03-18T11:00:04.932Z,427.50
2023-03-18T11:01:04.900Z,427.50
2023-03-18T11:02:05.024Z,421.88
2023-03-18T11:03:04.923Z,421.88
2023-03-18T11:04:04.880Z,427.50
2023-03-18T11:05:04.912Z,444.38
2023-03-18T11:06:04.866Z,450.00
2023-03-18T11:07:04.859Z,444.38
2023-03-18T11:08:04.867Z,438.75
2023-03-18T11:09:04.844Z,444.38
2023-03-18T11:10:04.862Z,461.25
2023-03-18T11:11:04.822Z,455.62
2023-03-18T11:12:04.841Z,450.00
2023-03-18T11:13:04.819Z,421.88
2023-03-18T11:14:04.821Z,416.25
2023-03-18T11:15:04.924Z,421.88
2023-03-18T11:16:04.888Z,410.62
2023-03-18T11:17:04.799Z,444.38
2023-03-18T11:18:04.771Z,450.00
2023-03-18T11:19:04.762Z,466.88
2023-03-18T11:20:04.775Z,466.88
2023-03-18T11:21:04.800Z,472.50
2023-03-18T11:22:04.732Z,478.12
2023-03-18T11:23:04.728Z,489.38
2023-03-18T11:24:04.719Z,495.00
2023-03-18T11:25:04.744Z,495.00
2023-03-18T11:26:04.707Z,489.38
2023-03-18T11:27:04.697Z,495.00
2023-03-18T11:28:04.693Z,483.75
2023-03-18T11:29:04.688Z,478.12
2023-03-18T11:30:04.702Z,472.50
2023-03-18T11:31:04.709Z,455.62
2023-03-18T11:32:04.668Z,455.62
2023-03-18T11:33:04.725Z,455.62
2023-03-18T11:34:04.653Z,461.25
2023-03-18T11:35:04.668Z,455.62
2023-03-18T11:36:04.644Z,438.75
2023-03-18T11:37:04.890Z,433.12
2023-03-18T11:38:04.613Z,438.75
2023-03-18T11:39:04.603Z,433.12
2023-03-18T11:40:04.625Z,427.50
2023-03-18T11:41:04.593Z,427.50
2023-03-18T11:42:04.592Z,421.88
2023-03-18T11:43:04.568Z,421.88
2023-03-18T11:44:04.567Z,416.25
2023-03-18T11:45:04.587Z,416.25
2023-03-18T11:46:04.554Z,410.62
2023-03-18T11:47:04.591Z,410.62
2023-03-18T11:48:04.529Z,410.62
2023-03-18T11:49:04.519Z,410.62
2023-03-18T11:50:04.515Z,410.62
2023-03-18T11:51:04.532Z,405.00
2023-03-18T11:52:04.503Z,382.50
2023-03-18T11:53:04.499Z,393.75
2023-03-18T11:54:04.519Z,399.38
2023-03-18T11:55:04.483Z,376.88
2023-03-18T11:56:04.496Z,382.50
2023-03-18T11:57:04.463Z,371.25
2023-03-18T11:58:04.455Z,393.75
2023-03-18T11:59:04.442Z,382.50
2023-03-18T12:00:04.438Z,399.38
2023-03-18T12:01:04.461Z,433.12
2023-03-18T12:02:04.457Z,450.00
2023-03-18T12:03:04.408Z,461.25
2023-03-18T12:04:05.405Z,466.88
2023-03-18T12:05:04.440Z,495.00
2023-03-18T12:06:04.423Z,523.12
2023-03-18T12:07:04.388Z,523.12
2023-03-18T12:08:04.384Z,506.25
2023-03-18T12:09:04.380Z,511.88
2023-03-18T12:10:04.366Z,534.38
2023-03-18T12:11:04.386Z,523.12
2023-03-18T12:12:04.350Z,551.25
2023-03-18T12:13:04.336Z,573.75
2023-03-18T12:14:04.341Z,556.88
2023-03-18T12:15:04.331Z,545.62
2023-03-18T12:16:04.383Z,545.62
2023-03-18T12:17:04.311Z,540.00
2023-03-18T12:18:04.302Z,540.00
2023-03-18T12:19:04.299Z,534.38
2023-03-18T12:20:04.302Z,528.75
2023-03-18T12:21:04.479Z,528.75
2023-03-18T12:22:04.280Z,506.25
2023-03-18T12:23:04.268Z,528.75
2023-03-18T12:24:04.273Z,545.62
2023-03-18T12:25:04.258Z,545.62
2023-03-18T12:26:04.261Z,421.88
2023-03-18T12:27:04.234Z,399.38
2023-03-18T12:28:04.265Z,388.12
2023-03-18T12:29:04.223Z,382.50
2023-03-18T12:30:04.221Z,393.75
2023-03-18T12:31:04.225Z,450.00
2023-03-18T12:32:04.225Z,506.25
2023-03-18T12:33:04.261Z,466.88
2023-03-18T12:34:04.186Z,382.50
2023-03-18T12:35:04.167Z,376.88
2023-03-18T12:36:04.236Z,382.50
2023-03-18T12:37:04.154Z,376.88
2023-03-18T12:38:04.146Z,376.88
2023-03-18T12:39:04.159Z,371.25
2023-03-18T12:40:04.138Z,376.88
2023-03-18T12:41:04.151Z,382.50
2023-03-18T12:42:04.117Z,393.75
2023-03-18T12:43:04.117Z,388.12
2023-03-18T12:44:04.103Z,376.88
2023-03-18T12:45:04.102Z,376.88
2023-03-18T12:46:04.163Z,388.12
2023-03-18T12:47:04.083Z,376.88
2023-03-18T12:48:04.073Z,365.62